createdAt,value
2022-09-18T00:01:00.217Z,97742.44
2022-09-18T00:03:08.918Z,97738.00
2022-09-18T00:05:17.140Z,97742.88
2022-09-18T00:07:25.889Z,97741.88
2022-09-18T00:09:37.920Z,97747.59
2022-09-18T00:11:49.454Z,97742.06
2022-09-18T00:13:57.940Z,97746.31
2022-09-18T00:16:06.190Z,97745.31
2022-09-18T00:18:14.319Z,97739.03
2022-09-18T00:20:22.128Z,97744.53
2022-09-18T00:22:31.549Z,97752.75
2022-09-18T00:24:43.199Z,97751.25
2022-09-18T00:26:51.760Z,97746.59
2022-09-18T00:29:01.528Z,97751.34
2022-09-18T00:31:14.061Z,97756.72
2022-09-18T00:33:23.700Z,97755.97
2022-09-18T00:35:31.730Z,97751.91
2022-09-18T00:37:39.786Z,97748.13
2022-09-18T00:39:50.502Z,97753.34
2022-09-18T00:41:58.969Z,97751.63
2022-09-18T00:44:35.365Z,97754.00
2022-09-18T00:46:43.242Z,97753.06
2022-09-18T00:48:58.950Z,97747.75
2022-09-18T00:51:08.057Z,97748.03
2022-09-18T00:53:18.817Z,97753.84
2022-09-18T00:55:33.823Z,97745.09
2022-09-18T00:57:48.916Z,97753.84
2022-09-18T00:59:58.582Z,97755.19
2022-09-18T01:02:07.529Z,97756.41
2022-09-18T01:04:16.295Z,97756.28
2022-09-18T01:06:34.125Z,97755.63
2022-09-18T01:08:55.074Z,97756.75
2022-09-18T01:11:30.654Z,97762.72
2022-09-18T01:13:45.437Z,97757.94
2022-09-18T01:15:59.859Z,97758.94
2022-09-18T01:18:18.602Z,97754.75
2022-09-18T01:20:44.117Z,97760.66
2022-09-18T01:23:11.034Z,97767.69
2022-09-18T01:25:25.612Z,97770.63
2022-09-18T01:27:42.595Z,97774.50
2022-09-18T01:29:59.858Z,97776.09
2022-09-18T01:32:11.834Z,97772.59
2022-09-18T01:34:26.081Z,97769.25
2022-09-18T01:36:40.033Z,97770.03
2022-09-18T01:38:52.875Z,97771.63
2022-09-18T01:41:05.709Z,97766.91
2022-09-18T01:43:19.388Z,97763.50
2022-09-18T01:45:35.143Z,97762.06
2022-09-18T01:47:50.636Z,97760.16
2022-09-18T01:50:03.335Z,97759.31
2022-09-18T01:52:16.251Z,97752.91
2022-09-18T01:54:28.721Z,97753.84
2022-09-18T01:56:46.673Z,97745.69
2022-09-18T01:58:59.798Z,97737.63
2022-09-18T02:01:27.131Z,97741.44
2022-09-18T02:03:40.701Z,97742.66
2022-09-18T02:05:53.216Z,97747.38
2022-09-18T02:08:13.212Z,97742.34
2022-09-18T02:10:25.831Z,97740.91
2022-09-18T02:12:38.839Z,97732.97
2022-09-18T02:14:52.700Z,97729.00
2022-09-18T02:17:25.924Z,97729.19
2022-09-18T02:19:39.218Z,97731.47
2022-09-18T02:21:50.637Z,97722.19
2022-09-18T02:24:03.853Z,97730.25
2022-09-18T02:26:17.762Z,97724.94
2022-09-18T02:28:28.732Z,97724.94
2022-09-18T02:30:37.479Z,97730.25
2022-09-18T02:32:48.457Z,97727.66
2022-09-18T02:34:56.861Z,97725.78
2022-09-18T02:37:15.319Z,97718.09
2022-09-18T02:39:35.258Z,97711.84
2022-09-18T02:41:50.438Z,97713.38
2022-09-18T02:44:07.550Z,97723.03
2022-09-18T02:46:30.184Z,97713.53
2022-09-18T02:48:52.330Z,97708.34
2022-09-18T02:51:11.143Z,97714.91
2022-09-18T02:53:28.669Z,97715.75
2022-09-18T02:55:46.017Z,97706.09
2022-09-18T02:57:59.964Z,97707.50
2022-09-18T03:00:12.021Z,97702.66
2022-09-18T03:02:23.060Z,97696.31
2022-09-18T03:04:34.680Z,97705.69
2022-09-18T03:06:47.735Z,97700.75
2022-09-18T03:08:59.244Z,97698.66
2022-09-18T03:11:08.240Z,97696.13
2022-09-18T03:13:16.779Z,97697.88
2022-09-18T03:15:24.547Z,97696.13
2022-09-18T03:17:32.335Z,97690.31
2022-09-18T03:19:44.747Z,97689.56
2022-09-18T03:21:54.297Z,97691.44
2022-09-18T03:24:05.792Z,97689.56
2022-09-18T03:26:16.246Z,97686.50
2022-09-18T03:28:26.218Z,97694.66
2022-09-18T03:30:35.049Z,97688.72
2022-09-18T03:32:43.493Z,97694.06
2022-09-18T03:34:54.565Z,97695.22
2022-09-18T03:37:02.360Z,97696.53
2022-09-18T03:39:11.109Z,97696.63
2022-09-18T03:41:20.448Z,97687.91
2022-09-18T03:43:28.182Z,97698.31
2022-09-18T03:45:36.105Z,97687.53
2022-09-18T03:47:46.845Z,97692.16
2022-09-18T03:49:58.597Z,97683.19
2022-09-18T03:52:10.775Z,97689.16
2022-09-18T03:54:26.035Z,97691.78
2022-09-18T03:56:46.141Z,97684.69
2022-09-18T03:59:17.771Z,97693.44
2022-09-18T04:01:43.305Z,97696.09
2022-09-18T04:04:20.953Z,97691.53
2022-09-18T04:06:51.683Z,97701.50
2022-09-18T04:09:25.624Z,97708.88
2022-09-18T04:11:35.126Z,97705.47
2022-09-18T04:13:43.771Z,97708.97
2022-09-18T04:15:54.667Z,97714.75
2022-09-18T04:18:03.101Z,97707.59
2022-09-18T04:20:12.003Z,97704.63
2022-09-18T04:22:22.754Z,97708.88
2022-09-18T04:24:30.807Z,97707.81
2022-09-18T04:26:42.150Z,97699.47
2022-09-18T04:28:50.430Z,97697.47
2022-09-18T04:30:58.505Z,97700.97
2022-09-18T04:33:08.116Z,97699.00
2022-09-18T04:35:16.781Z,97705.06
2022-09-18T04:37:30.018Z,97710.28
2022-09-18T04:39:42.018Z,97702.34
2022-09-18T04:41:53.414Z,97703.78
2022-09-18T04:44:01.453Z,97697.94
2022-09-18T04:46:10.266Z,97699.38
2022-09-18T04:48:18.195Z,97699.16
2022-09-18T04:50:27.374Z,97696.09
2022-09-18T04:53:10.342Z,97699.94
2022-09-18T04:55:18.565Z,97702.78
2022-09-18T04:57:26.469Z,97706.00
2022-09-18T04:59:34.679Z,97699.84
2022-09-18T05:01:42.915Z,97694.91
2022-09-18T05:03:53.077Z,97698.91
2022-09-18T05:06:09.302Z,97705.75
2022-09-18T05:08:20.535Z,97693.81
2022-09-18T05:10:29.016Z,97703.25
2022-09-18T05:12:37.667Z,97710.38
2022-09-18T05:14:45.450Z,97710.94
2022-09-18T05:16:57.304Z,97713.59
2022-09-18T05:19:10.243Z,97719.00
2022-09-18T05:21:18.006Z,97721.66
2022-09-18T05:23:29.292Z,97715.53
2022-09-18T05:25:45.539Z,97719.91
2022-09-18T05:27:57.773Z,97717.25
2022-09-18T05:30:12.847Z,97728.34
2022-09-18T05:32:33.659Z,97725.94
2022-09-18T05:34:43.036Z,97729.22
2022-09-18T05:36:51.069Z,97739.16
2022-09-18T05:39:01.858Z,97734.00
2022-09-18T05:41:10.404Z,97724.94
2022-09-18T05:43:19.203Z,97726.53
2022-09-18T05:45:30.034Z,97727.31
2022-09-18T05:47:38.201Z,97726.34
2022-09-18T05:49:45.934Z,97735.44
2022-09-18T05:51:54.773Z,97727.47
2022-09-18T05:54:17.356Z,97738.09
2022-09-18T05:56:33.024Z,97732.41
2022-09-18T05:58:41.890Z,97740.91
2022-09-18T06:00:52.149Z,97729.50
2022-09-18T06:03:08.710Z,97724.28
2022-09-18T06:05:17.049Z,97725.78
2022-09-18T06:07:25.270Z,97725.78
2022-09-18T06:09:36.223Z,97723.72
2022-09-18T06:11:44.264Z,97725.25
2022-09-18T06:13:52.640Z,97724.72
2022-09-18T06:16:00.817Z,97728.22
2022-09-18T06:18:21.151Z,97737.25
2022-09-18T06:20:29.479Z,97731.28
2022-09-18T06:22:37.972Z,97742.88
2022-09-18T06:24:54.962Z,97739.78
2022-09-18T06:27:10.274Z,97739.44
2022-09-18T06:29:19.782Z,97730.72
2022-09-18T06:31:40.365Z,97738.69
2022-09-18T06:33:50.999Z,97736.69
2022-09-18T06:36:00.683Z,97738.31
2022-09-18T06:38:19.335Z,97736.59
2022-09-18T06:40:37.162Z,97728.16
2022-09-18T06:43:06.879Z,97733.19
2022-09-18T06:45:27.073Z,97730.38
2022-09-18T06:47:39.203Z,97736.13
2022-09-18T06:49:48.661Z,97730.53
2022-09-18T06:51:58.469Z,97733.78
2022-09-18T06:54:07.620Z,97733.31
2022-09-18T06:56:18.322Z,97725.72
2022-09-18T06:58:26.326Z,97725.06
2022-09-18T07:00:37.129Z,97727.72
2022-09-18T07:02:45.197Z,97729.06
2022-09-18T07:05:16.025Z,97733.13
2022-09-18T07:07:24.280Z,97731.44
2022-09-18T07:09:33.383Z,97727.50
2022-09-18T07:11:53.338Z,97738.63
2022-09-18T07:14:14.156Z,97736.81
2022-09-18T07:16:23.216Z,97744.25
2022-09-18T07:18:31.270Z,97749.56
2022-09-18T07:20:41.923Z,97750.50
2022-09-18T07:22:56.105Z,97745.81
2022-09-18T07:25:20.086Z,97749.75
2022-09-18T07:27:32.197Z,97756.72
2022-09-18T07:29:40.525Z,97753.59
2022-09-18T07:31:49.376Z,97754.81
2022-09-18T07:33:58.428Z,97763.56
2022-09-18T07:36:09.535Z,97763.88
2022-09-18T07:38:18.204Z,97768.75
2022-09-18T07:40:33.744Z,97768.88
2022-09-18T07:42:52.017Z,97775.53
2022-09-18T07:45:01.451Z,97770.19
2022-09-18T07:47:12.553Z,97770.38
2022-09-18T07:49:23.052Z,97775.53
2022-09-18T07:51:32.965Z,97766.41
2022-09-18T07:53:41.330Z,97773.34
2022-09-18T07:55:50.226Z,97781.50
2022-09-18T07:58:04.427Z,97779.66
2022-09-18T08:00:39.895Z,97785.22
2022-09-18T08:02:49.878Z,97781.06
2022-09-18T08:05:18.461Z,97786.09
2022-09-18T08:07:37.898Z,97787.50
2022-09-18T08:09:57.529Z,97788.06
2022-09-18T08:12:18.495Z,97789.09
2022-09-18T08:14:52.662Z,97800.09
2022-09-18T08:17:23.561Z,97802.53
2022-09-18T08:19:47.419Z,97795.34
2022-09-18T08:22:04.897Z,97804.47
2022-09-18T08:24:14.029Z,97806.59
2022-09-18T08:26:22.547Z,97814.16
2022-09-18T08:28:32.900Z,97809.50
2022-09-18T08:30:45.387Z,97818.72
2022-09-18T08:32:53.938Z,97818.78
2022-09-18T08:35:02.845Z,97818.53
2022-09-18T08:37:11.949Z,97823.84
2022-09-18T08:39:39.326Z,97816.34
2022-09-18T08:42:14.697Z,97823.38
2022-09-18T08:44:27.751Z,97826.19
2022-09-18T08:46:43.545Z,97827.88
2022-09-18T08:49:01.740Z,97817.16
2022-09-18T08:51:21.456Z,97826.06
2022-09-18T08:53:35.712Z,97825.50
2022-09-18T08:56:05.123Z,97829.91
2022-09-18T08:58:51.401Z,97819.50
2022-09-18T09:01:02.695Z,97829.13
2022-09-18T09:03:44.569Z,97824.34
2022-09-18T09:05:57.036Z,97832.34
2022-09-18T09:08:17.439Z,97828.22
2022-09-18T09:10:43.634Z,97833.41
2022-09-18T09:12:59.028Z,97831.06
2022-09-18T09:15:22.909Z,97830.34
2022-09-18T09:17:46.002Z,97825.41
2022-09-18T09:20:06.423Z,97829.25
2022-09-18T09:22:33.854Z,97835.88
2022-09-18T09:24:51.891Z,97831.81
2022-09-18T09:27:28.101Z,97832.38
2022-09-18T09:30:04.933Z,97827.16
2022-09-18T09:32:31.060Z,97821.78
2022-09-18T09:35:06.381Z,97820.97
2022-09-18T09:37:24.381Z,97825.56
2022-09-18T09:39:37.239Z,97825.41
2022-09-18T09:41:49.528Z,97822.44
2022-09-18T09:44:06.653Z,97823.09
2022-09-18T09:46:22.982Z,97820.75
2022-09-18T09:48:36.897Z,97818.19
2022-09-18T09:50:56.630Z,97819.34
2022-09-18T09:53:11.598Z,97821.06
2022-09-18T09:55:27.740Z,97818.94
2022-09-18T09:57:44.260Z,97820.75
2022-09-18T10:00:02.066Z,97818.72
2022-09-18T10:03:29.044Z,97810.94
2022-09-18T10:05:46.871Z,97822.31
2022-09-18T10:08:06.783Z,97815.72
2022-09-18T10:10:21.669Z,97813.91
2022-09-18T10:12:39.917Z,97820.63
2022-09-18T10:14:50.944Z,97814.41
2022-09-18T10:17:01.005Z,97812.63
2022-09-18T10:19:09.233Z,97813.13
2022-09-18T10:21:23.206Z,97807.25
2022-09-18T10:23:40.634Z,97805.13
2022-09-18T10:25:53.754Z,97814.94
2022-09-18T10:28:01.882Z,97815.66
2022-09-18T10:30:15.685Z,97802.94
2022-09-18T10:32:36.580Z,97807.00
2022-09-18T10:34:53.882Z,97808.63
2022-09-18T10:37:04.260Z,97794.16
2022-09-18T10:39:32.917Z,97799.28
2022-09-18T10:41:46.121Z,97801.47
2022-09-18T10:44:02.724Z,97796.88
2022-09-18T10:46:11.894Z,97793.41
2022-09-18T10:48:27.247Z,97785.59
2022-09-18T10:50:37.370Z,97790.88
2022-09-18T10:52:46.762Z,97791.03
2022-09-18T10:55:21.526Z,97796.41
2022-09-18T10:57:37.016Z,97792.13
2022-09-18T10:59:49.777Z,97794.00
2022-09-18T11:02:00.076Z,97796.22
2022-09-18T11:04:19.502Z,97786.13
2022-09-18T11:06:31.742Z,97788.69
2022-09-18T11:08:52.185Z,97796.44
2022-09-18T11:11:09.056Z,97794.91
2022-09-18T11:13:25.094Z,97791.38
2022-09-18T11:15:38.872Z,97787.47
2022-09-18T11:17:53.575Z,97785.66
2022-09-18T11:20:05.871Z,97799.22
2022-09-18T11:22:37.720Z,97792.97
2022-09-18T11:24:50.300Z,97790.97
2022-09-18T11:27:02.213Z,97785.00
2022-09-18T11:29:24.058Z,97773.59
2022-09-18T11:31:42.864Z,97787.25
2022-09-18T11:33:55.357Z,97781.03
2022-09-18T11:36:13.421Z,97775.97
2022-09-18T11:38:22.493Z,97770.38
2022-09-18T11:40:35.442Z,97776.97
2022-09-18T11:42:48.493Z,97759.72
2022-09-18T11:45:09.346Z,97747.50
2022-09-18T11:47:39.789Z,97747.84
2022-09-18T11:49:53.582Z,97753.06
2022-09-18T11:52:07.269Z,97749.19
2022-09-18T11:54:29.368Z,97741.50
2022-09-18T11:56:42.976Z,97746.72
2022-09-18T11:58:59.994Z,97743.94
2022-09-18T12:01:18.185Z,97743.09
2022-09-18T12:03:32.369Z,97742.88
2022-09-18T12:05:52.952Z,97743.41
2022-09-18T12:08:14.692Z,97749.88
2022-09-18T12:10:32.854Z,97744.41
2022-09-18T12:12:44.470Z,97749.25
2022-09-18T12:15:03.431Z,97748.66
2022-09-18T12:17:19.542Z,97748.75
2022-09-18T12:19:33.940Z,97745.66
2022-09-18T12:21:46.885Z,97738.53
2022-09-18T12:23:58.194Z,97738.91
2022-09-18T12:26:20.111Z,97742.41
2022-09-18T12:28:41.296Z,97752.59
2022-09-18T12:31:01.930Z,97741.84
2022-09-18T12:33:30.156Z,97739.19
2022-09-18T12:36:04.087Z,97735.44
2022-09-18T12:38:26.606Z,97725.69
2022-09-18T12:40:40.638Z,97729.50
2022-09-18T12:43:00.994Z,97717.53
2022-09-18T12:45:40.933Z,97712.38
2022-09-18T12:48:05.356Z,97707.06
2022-09-18T12:50:45.644Z,97704.41
2022-09-18T12:53:09.967Z,97710.84
2022-09-18T12:55:30.493Z,97712.28
2022-09-18T12:57:53.747Z,97705.50
2022-09-18T13:00:08.453Z,97700.22
2022-09-18T13:02:31.356Z,97713.09
2022-09-18T13:04:47.906Z,97715.53
2022-09-18T13:07:02.357Z,97710.34
2022-09-18T13:09:23.863Z,97716.56
2022-09-18T13:11:35.658Z,97715.53
2022-09-18T13:13:48.612Z,97720.63
2022-09-18T13:16:02.558Z,97719.06
2022-09-18T13:18:25.408Z,97725.28
2022-09-18T13:20:42.822Z,97718.16
2022-09-18T13:22:54.044Z,97718.81
2022-09-18T13:25:02.723Z,97718.63
2022-09-18T13:27:15.838Z,97716.34
2022-09-18T13:29:51.490Z,97706.81
2022-09-18T13:31:59.742Z,97709.16
2022-09-18T13:34:18.335Z,97710.34
2022-09-18T13:36:35.328Z,97700.63
2022-09-18T13:38:50.853Z,97700.72
2022-09-18T13:41:04.959Z,97700.47
2022-09-18T13:43:34.855Z,97689.03
2022-09-18T13:45:43.053Z,97702.28
2022-09-18T13:48:04.974Z,97705.00
2022-09-18T13:50:20.828Z,97696.25
2022-09-18T13:52:46.093Z,97689.91
2022-09-18T13:55:03.988Z,97693.84
2022-09-18T13:57:20.716Z,97686.50
2022-09-18T13:59:49.646Z,97689.22
2022-09-18T14:02:03.999Z,97690.28
2022-09-18T14:04:43.027Z,97686.25
2022-09-18T14:06:50.616Z,97685.34
2022-09-18T14:09:02.477Z,97680.34
2022-09-18T14:11:16.267Z,97672.09
2022-09-18T14:13:38.986Z,97673.22
2022-09-18T14:15:55.810Z,97673.22
2022-09-18T14:18:14.619Z,97662.06
2022-09-18T14:20:25.195Z,97663.75
2022-09-18T14:22:36.521Z,97664.25
2022-09-18T14:25:01.875Z,97654.25
2022-09-18T14:27:33.279Z,97662.91
2022-09-18T14:29:41.287Z,97662.50
2022-09-18T14:31:51.877Z,97657.06
2022-09-18T14:34:06.222Z,97668.31
2022-09-18T14:36:14.930Z,97662.97
2022-09-18T14:38:36.724Z,97662.50
2022-09-18T14:40:58.820Z,97658.88
2022-09-18T14:43:17.651Z,97660.09
2022-09-18T14:45:31.629Z,97657.31
2022-09-18T14:47:39.986Z,97655.19
2022-09-18T14:49:49.428Z,97659.22
2022-09-18T14:52:03.998Z,97655.19
2022-09-18T14:54:25.284Z,97650.63
2022-09-18T14:56:39.717Z,97644.41
2022-09-18T14:58:50.668Z,97645.75
2022-09-18T15:00:59.914Z,97637.00
2022-09-18T15:03:16.634Z,97635.53
2022-09-18T15:05:24.878Z,97629.00
2022-09-18T15:07:35.048Z,97628.66
2022-09-18T15:09:44.433Z,97621.09
2022-09-18T15:12:06.600Z,97617.84
2022-09-18T15:14:30.135Z,97616.53
2022-09-18T15:16:38.515Z,97621.84
2022-09-18T15:18:46.362Z,97616.75
2022-09-18T15:20:56.147Z,97616.50
2022-09-18T15:23:20.617Z,97604.00
2022-09-18T15:25:32.731Z,97609.22
2022-09-18T15:27:44.499Z,97600.09
2022-09-18T15:29:55.634Z,97606.53
2022-09-18T15:32:06.829Z,97603.47
2022-09-18T15:34:19.969Z,97594.41
2022-09-18T15:36:31.654Z,97592.22
2022-09-18T15:38:44.637Z,97593.06
2022-09-18T15:40:55.960Z,97588.56
2022-09-18T15:43:08.247Z,97600.94
2022-09-18T15:45:23.649Z,97596.69
2022-09-18T15:47:37.676Z,97596.66
2022-09-18T15:49:45.730Z,97601.03
2022-09-18T15:51:54.166Z,97596.56
2022-09-18T15:54:10.530Z,97617.50
2022-09-18T15:56:23.111Z,97605.25
2022-09-18T15:58:49.539Z,97596.53
2022-09-18T16:01:01.173Z,97603.19
2022-09-18T16:03:11.443Z,97597.34
2022-09-18T16:05:19.663Z,97587.53
2022-09-18T16:07:30.218Z,97582.91
2022-09-18T16:09:44.266Z,97584.13
2022-09-18T16:11:57.483Z,97589.94
2022-09-18T16:14:31.308Z,97587.47
2022-09-18T16:16:39.110Z,97583.59
2022-09-18T16:18:59.243Z,97593.16
2022-09-18T16:21:09.118Z,97586.00
2022-09-18T16:23:24.625Z,97578.00
2022-09-18T16:25:40.352Z,97579.22
2022-09-18T16:27:50.386Z,97577.91
2022-09-18T16:30:03.644Z,97573.97
2022-09-18T16:32:13.997Z,97579.66
2022-09-18T16:34:24.833Z,97569.13
2022-09-18T16:36:35.684Z,97568.28
2022-09-18T16:38:43.717Z,97568.97
2022-09-18T16:40:55.440Z,97568.13
2022-09-18T16:43:03.287Z,97570.69
2022-09-18T16:45:15.832Z,97565.22
2022-09-18T16:47:25.759Z,97556.72
2022-09-18T16:49:36.462Z,97566.53
2022-09-18T16:51:44.264Z,97567.72
2022-09-18T16:53:55.881Z,97554.41
2022-09-18T16:56:06.488Z,97551.25
2022-09-18T16:58:15.926Z,97562.06
2022-09-18T17:00:26.848Z,97558.69
2022-09-18T17:02:34.920Z,97562.06
2022-09-18T17:04:42.980Z,97556.88
2022-09-18T17:06:51.309Z,97558.47
2022-09-18T17:08:59.771Z,97551.88
2022-09-18T17:11:08.119Z,97551.66
2022-09-18T17:13:16.427Z,97550.19
2022-09-18T17:15:27.354Z,97549.47
2022-09-18T17:17:35.635Z,97547.97
2022-09-18T17:19:43.915Z,97538.03
2022-09-18T17:21:52.754Z,97543.72
2022-09-18T17:24:02.208Z,97536.69
2022-09-18T17:26:12.627Z,97537.78
2022-09-18T17:28:20.443Z,97539.69
2022-09-18T17:30:31.225Z,97538.00
2022-09-18T17:32:39.380Z,97537.66
2022-09-18T17:34:47.302Z,97532.53
2022-09-18T17:36:55.622Z,97538.84
2022-09-18T17:39:04.641Z,97543.31
2022-09-18T17:41:15.385Z,97531.94
2022-09-18T17:43:25.230Z,97535.66
2022-09-18T17:45:51.996Z,97524.16
2022-09-18T17:48:00.363Z,97530.06
2022-09-18T17:50:09.337Z,97517.59
2022-09-18T17:52:17.651Z,97526.63
2022-09-18T17:54:25.510Z,97533.13
2022-09-18T17:56:38.504Z,97529.63
2022-09-18T17:58:46.917Z,97528.47
2022-09-18T18:00:57.754Z,97521.56
2022-09-18T18:03:05.891Z,97524.75
2022-09-18T18:05:14.585Z,97527.41
2022-09-18T18:07:22.671Z,97516.50
2022-09-18T18:09:31.044Z,97530.16
2022-09-18T18:11:39.842Z,97526.78
2022-09-18T18:13:52.078Z,97529.06
2022-09-18T18:16:11.156Z,97527.13
2022-09-18T18:18:22.169Z,97526.25
2022-09-18T18:20:30.211Z,97531.59
2022-09-18T18:22:38.207Z,97540.44
2022-09-18T18:24:46.352Z,97541.16
2022-09-18T18:26:55.834Z,97541.25
2022-09-18T18:29:05.884Z,97544.00
2022-09-18T18:31:17.165Z,97538.66
2022-09-18T18:33:24.934Z,97541.84
2022-09-18T18:35:33.048Z,97546.66
2022-09-18T18:37:41.490Z,97544.75
2022-09-18T18:39:49.702Z,97537.16
2022-09-18T18:41:57.568Z,97535.53
2022-09-18T18:44:06.416Z,97533.84
2022-09-18T18:46:17.374Z,97541.97
2022-09-18T18:48:25.790Z,97533.00
2022-09-18T18:50:34.172Z,97547.44
2022-09-18T18:52:42.652Z,97548.66
2022-09-18T18:54:50.386Z,97551.31
2022-09-18T18:56:58.191Z,97549.03
2022-09-18T18:59:11.027Z,97532.88
2022-09-18T19:01:23.046Z,97555.16
2022-09-18T19:03:35.176Z,97550.81
2022-09-18T19:05:46.419Z,97549.25
2022-09-18T19:07:54.530Z,97547.09
2022-09-18T19:10:02.699Z,97543.16
2022-09-18T19:12:10.836Z,97549.97
2022-09-18T19:14:20.708Z,97549.13
2022-09-18T19:16:32.944Z,97550.81
2022-09-18T19:18:41.915Z,97545.72
2022-09-18T19:20:53.719Z,97545.81
2022-09-18T19:23:01.754Z,97551.91
2022-09-18T19:25:13.270Z,97543.06
2022-09-18T19:27:23.506Z,97546.31
2022-09-18T19:29:31.775Z,97549.44
2022-09-18T19:31:44.454Z,97537.72
2022-09-18T19:33:53.927Z,97537.81
2022-09-18T19:36:06.227Z,97528.25
2022-09-18T19:38:21.149Z,97538.66
2022-09-18T19:40:32.144Z,97536.81
2022-09-18T19:42:40.011Z,97549.16
2022-09-18T19:44:50.164Z,97554.16
2022-09-18T19:47:03.233Z,97550.78
2022-09-18T19:49:18.930Z,97547.47
2022-09-18T19:51:27.035Z,97546.50
2022-09-18T19:53:35.471Z,97555.84
2022-09-18T19:55:47.090Z,97549.03
2022-09-18T19:57:57.525Z,97553.31
2022-09-18T20:00:06.675Z,97554.72
2022-09-18T20:02:22.956Z,97549.28
2022-09-18T20:04:31.480Z,97553.06
2022-09-18T20:06:40.609Z,97557.66
2022-09-18T20:08:51.047Z,97554.00
2022-09-18T20:10:59.444Z,97548.16
2022-09-18T20:13:10.780Z,97558.81
2022-09-18T20:15:18.551Z,97547.38
2022-09-18T20:17:29.331Z,97549.06
2022-09-18T20:19:43.956Z,97552.22
2022-09-18T20:21:54.657Z,97560.06
2022-09-18T20:24:02.780Z,97563.13
2022-09-18T20:26:19.567Z,97558.38
2022-09-18T20:28:35.048Z,97555.81
2022-09-18T20:30:44.646Z,97567.44
2022-09-18T20:32:55.457Z,97563.72
2022-09-18T20:35:03.455Z,97562.66
2022-09-18T20:37:13.262Z,97562.13
2022-09-18T20:39:22.246Z,97571.69
2022-09-18T20:41:31.406Z,97575.03
2022-09-18T20:43:41.962Z,97565.53
2022-09-18T20:45:59.679Z,97574.06
2022-09-18T20:48:10.601Z,97567.44
2022-09-18T20:50:21.786Z,97574.16
2022-09-18T20:52:31.263Z,97573.44
2022-09-18T20:54:41.712Z,97572.03
2022-09-18T20:56:51.112Z,97579.47
2022-09-18T20:58:59.093Z,97570.16
2022-09-18T21:01:15.130Z,97567.03
2022-09-18T21:03:27.710Z,97566.13
2022-09-18T21:05:37.115Z,97569.31
2022-09-18T21:07:45.779Z,97566.00
2022-09-18T21:09:58.147Z,97569.81
2022-09-18T21:12:06.850Z,97559.84
2022-09-18T21:14:20.401Z,97561.84
2022-09-18T21:16:29.935Z,97547.47
2022-09-18T21:18:41.813Z,97558.88
2022-09-18T21:20:49.992Z,97546.63
2022-09-18T21:23:22.477Z,97536.53
2022-09-18T21:25:33.064Z,97538.75
2022-09-18T21:27:43.412Z,97535.56
2022-09-18T21:29:51.339Z,97543.75
2022-09-18T21:32:02.379Z,97544.19
2022-09-18T21:34:16.360Z,97539.19
2022-09-18T21:36:25.046Z,97540.03
2022-09-18T21:38:33.165Z,97544.38
2022-09-18T21:40:41.208Z,97545.16
2022-09-18T21:42:49.353Z,97540.34
2022-09-18T21:44:59.525Z,97532.66
2022-09-18T21:47:10.799Z,97531.63
2022-09-18T21:49:22.896Z,97533.88
2022-09-18T21:51:31.041Z,97529.09
2022-09-18T21:53:40.318Z,97537.97
2022-09-18T21:55:48.489Z,97539.91
2022-09-18T21:57:56.564Z,97537.47
2022-09-18T22:00:06.163Z,97528.53
2022-09-18T22:02:22.270Z,97529.50
2022-09-18T22:04:34.816Z,97534.28
2022-09-18T22:06:45.058Z,97535.41
2022-09-18T22:08:55.013Z,97527.53
2022-09-18T22:11:04.737Z,97534.75
2022-09-18T22:13:12.810Z,97526.06
2022-09-18T22:15:21.287Z,97534.22
2022-09-18T22:17:29.325Z,97538.28
2022-09-18T22:19:41.628Z,97531.06
2022-09-18T22:21:51.226Z,97532.97
2022-09-18T22:24:06.362Z,97535.50
2022-09-18T22:26:14.555Z,97537.97
2022-09-18T22:28:25.223Z,97539.34
2022-09-18T22:30:34.129Z,97536.56
2022-09-18T22:32:42.541Z,97540.63
2022-09-18T22:34:53.581Z,97540.63
2022-09-18T22:37:02.716Z,97543.94
2022-09-18T22:39:10.717Z,97552.00
2022-09-18T22:41:18.583Z,97553.81
2022-09-18T22:43:26.480Z,97557.84
2022-09-18T22:45:34.617Z,97558.19
2022-09-18T22:47:42.698Z,97552.47
2022-09-18T22:49:53.561Z,97564.47
2022-09-18T22:52:02.128Z,97572.47
2022-09-18T22:54:10.681Z,97575.19
2022-09-18T22:56:20.637Z,97576.81
2022-09-18T22:58:29.891Z,97576.06
2022-09-18T23:00:38.015Z,97579.53
2022-09-18T23:02:45.903Z,97584.44
2022-09-18T23:04:56.768Z,97578.56
2022-09-18T23:07:05.658Z,97584.84
2022-09-18T23:09:15.255Z,97595.47
2022-09-18T23:11:24.826Z,97603.84
2022-09-18T23:13:32.881Z,97620.75
2022-09-18T23:15:41.062Z,97630.44
2022-09-18T23:17:49.138Z,97622.44
2022-09-18T23:20:00.026Z,97636.41
2022-09-18T23:22:10.168Z,97637.66
2022-09-18T23:24:20.829Z,97636.97
2022-09-18T23:26:30.803Z,97637.19
2022-09-18T23:28:42.506Z,97650.28
2022-09-18T23:30:50.506Z,97638.41
2022-09-18T23:32:58.303Z,97648.84
2022-09-18T23:35:10.231Z,97651.50
2022-09-18T23:37:19.251Z,97649.28
2022-09-18T23:39:30.593Z,97653.25
2022-09-18T23:41:38.540Z,97659.13
2022-09-18T23:43:49.420Z,97663.69
2022-09-18T23:45:59.401Z,97657.44
2022-09-18T23:48:09.437Z,97654.22
2022-09-18T23:50:20.525Z,97654.31
2022-09-18T23:52:29.515Z,97644.56
2022-09-18T23:54:37.591Z,97651.41
2022-09-18T23:56:47.484Z,97654.38
2022-09-18T23:58:57.836Z,97669.31
